createdAt,value
2023-08-14T00:02:30.493Z,19.53
2023-08-14T00:05:32.092Z,19.51
2023-08-14T00:08:33.729Z,19.53
2023-08-14T00:11:35.388Z,19.53
2023-08-14T00:14:40.123Z,19.51
2023-08-14T00:17:41.829Z,19.48
2023-08-14T00:20:43.449Z,19.48
2023-08-14T00:23:45.185Z,19.46
2023-08-14T00:26:46.796Z,19.45
2023-08-14T00:29:48.396Z,19.47
2023-08-14T00:32:50.059Z,19.46
2023-08-14T00:35:51.867Z,19.47
2023-08-14T00:38:53.541Z,19.44
2023-08-14T00:41:55.164Z,19.42
2023-08-14T00:44:56.767Z,19.40
2023-08-14T00:47:58.374Z,19.38
2023-08-14T00:51:00.134Z,19.36
2023-08-14T00:54:01.710Z,19.36
2023-08-14T00:57:03.297Z,19.36
2023-08-14T01:00:04.905Z,19.32
2023-08-14T01:03:06.498Z,19.31
2023-08-14T01:06:08.137Z,19.33
2023-08-14T01:09:09.778Z,19.33
2023-08-14T01:12:11.376Z,19.31
2023-08-14T01:15:12.988Z,19.30
2023-08-14T01:18:14.640Z,19.31
2023-08-14T01:21:16.295Z,19.27
2023-08-14T01:24:17.868Z,19.28
2023-08-14T01:27:19.504Z,19.29
2023-08-14T01:30:21.089Z,19.25
2023-08-14T01:33:22.746Z,19.26
2023-08-14T01:36:24.349Z,19.28
2023-08-14T01:39:26.026Z,19.28
2023-08-14T01:42:27.689Z,19.26
2023-08-14T01:45:29.294Z,19.25
2023-08-14T01:48:30.896Z,19.22
2023-08-14T01:51:32.567Z,19.22
2023-08-14T01:54:34.170Z,19.25
2023-08-14T01:57:35.810Z,19.21
2023-08-14T02:00:37.375Z,19.22
2023-08-14T02:03:39.250Z,19.23
2023-08-14T02:06:40.972Z,19.18
2023-08-14T02:09:42.563Z,19.17
2023-08-14T02:12:44.154Z,19.13
2023-08-14T02:15:45.795Z,19.14
2023-08-14T02:18:47.396Z,19.14
2023-08-14T02:21:48.993Z,19.14
2023-08-14T02:24:50.686Z,19.14
2023-08-14T02:27:52.292Z,19.14
2023-08-14T02:30:53.954Z,19.14
2023-08-14T02:33:55.678Z,19.11
2023-08-14T02:36:57.240Z,19.11
2023-08-14T02:39:58.861Z,19.10
2023-08-14T02:43:00.456Z,19.12
2023-08-14T02:46:02.151Z,19.09
2023-08-14T02:49:03.805Z,19.09
2023-08-14T02:52:05.445Z,19.10
2023-08-14T02:55:07.046Z,19.10
2023-08-14T02:58:08.627Z,19.08
2023-08-14T03:01:10.236Z,19.09
2023-08-14T03:04:11.865Z,19.09
2023-08-14T03:07:13.515Z,19.09
2023-08-14T03:10:15.251Z,19.08
2023-08-14T03:13:16.796Z,19.09
2023-08-14T03:16:18.430Z,19.08
2023-08-14T03:19:20.119Z,19.06
2023-08-14T03:22:21.694Z,19.10
2023-08-14T03:25:23.289Z,19.08
2023-08-14T03:28:24.850Z,19.08
2023-08-14T03:31:26.514Z,19.09
2023-08-14T03:34:28.158Z,19.08
2023-08-14T03:37:29.812Z,19.06
2023-08-14T03:40:31.412Z,19.04
2023-08-14T03:43:33.065Z,19.03
2023-08-14T03:46:34.715Z,19.04
2023-08-14T03:49:36.446Z,19.03
2023-08-14T03:52:38.088Z,19.02
2023-08-14T03:55:39.699Z,19.01
2023-08-14T03:58:41.319Z,19.01
2023-08-14T04:01:42.940Z,19.01
2023-08-14T04:04:44.623Z,19.02
2023-08-14T04:07:46.233Z,19.04
2023-08-14T04:10:47.830Z,19.05
2023-08-14T04:13:49.416Z,19.05
2023-08-14T04:16:51.065Z,19.05
2023-08-14T04:19:52.712Z,19.04
2023-08-14T04:22:54.368Z,19.04
2023-08-14T04:25:55.997Z,19.05
2023-08-14T04:28:57.596Z,19.06
2023-08-14T04:31:59.272Z,19.07
2023-08-14T04:35:00.861Z,19.06
2023-08-14T04:38:02.434Z,19.06
2023-08-14T04:41:04.049Z,19.06
2023-08-14T04:44:05.688Z,19.09
2023-08-14T04:47:07.297Z,19.07
2023-08-14T04:50:08.905Z,19.07
2023-08-14T04:53:10.489Z,19.06
2023-08-14T04:56:12.106Z,19.07
2023-08-14T04:59:13.756Z,19.06
2023-08-14T05:02:15.628Z,19.07
2023-08-14T05:05:17.436Z,19.09
2023-08-14T05:08:19.040Z,19.08
2023-08-14T05:11:20.606Z,19.07
2023-08-14T05:14:22.262Z,19.06
2023-08-14T05:17:23.970Z,19.11
2023-08-14T05:20:25.628Z,19.14
2023-08-14T05:23:27.241Z,19.13
2023-08-14T05:26:28.830Z,19.15
2023-08-14T05:29:30.470Z,19.17
2023-08-14T05:32:32.138Z,19.16
2023-08-14T05:35:33.835Z,19.16
2023-08-14T05:38:35.431Z,19.17
2023-08-14T05:41:37.000Z,19.18
2023-08-14T05:44:38.686Z,19.20
2023-08-14T05:47:40.347Z,19.24
2023-08-14T05:50:41.944Z,19.21
2023-08-14T05:53:43.533Z,19.21
2023-08-14T05:56:45.101Z,19.22
2023-08-14T05:59:46.799Z,19.23
2023-08-14T06:02:48.459Z,19.24
2023-08-14T06:05:50.101Z,19.26
2023-08-14T06:08:51.694Z,19.27
2023-08-14T06:11:53.259Z,19.24
2023-08-14T06:14:54.883Z,19.24
2023-08-14T06:17:56.533Z,19.26
2023-08-14T06:20:58.227Z,19.26
2023-08-14T06:23:59.855Z,19.26
2023-08-14T06:27:02.600Z,19.30
2023-08-14T06:30:04.244Z,19.34
2023-08-14T06:33:05.943Z,19.45
2023-08-14T06:36:07.566Z,19.54
2023-08-14T06:39:09.166Z,19.54
2023-08-14T06:42:10.820Z,19.57
2023-08-14T06:45:12.410Z,19.66
2023-08-14T06:48:14.045Z,19.55
2023-08-14T06:51:15.714Z,19.59
2023-08-14T06:54:17.417Z,19.65
2023-08-14T06:57:19.045Z,19.77
2023-08-14T07:00:20.678Z,19.77
2023-08-14T07:03:22.384Z,19.68
2023-08-14T07:06:24.020Z,19.77
2023-08-14T07:09:25.662Z,19.78
2023-08-14T07:12:28.545Z,19.74
2023-08-14T07:15:30.181Z,19.84
2023-08-14T07:18:31.784Z,19.79
2023-08-14T07:21:33.481Z,19.75
2023-08-14T07:24:35.114Z,19.75
2023-08-14T07:27:38.977Z,19.91
2023-08-14T07:30:40.717Z,19.71
2023-08-14T07:33:42.419Z,19.75
2023-08-14T07:36:44.051Z,19.80
2023-08-14T07:39:45.670Z,19.78
2023-08-14T07:42:47.275Z,19.79
2023-08-14T07:45:48.925Z,19.81
2023-08-14T07:48:52.913Z,19.86
2023-08-14T07:51:56.148Z,19.90
2023-08-14T07:54:57.812Z,19.81
2023-08-14T07:57:59.430Z,19.90
2023-08-14T08:01:01.070Z,19.99
2023-08-14T08:04:02.730Z,19.99
2023-08-14T08:07:04.483Z,19.90
2023-08-14T08:10:06.115Z,19.92
2023-08-14T08:13:07.724Z,19.88
2023-08-14T08:16:09.324Z,19.94
2023-08-14T08:19:11.027Z,19.98
2023-08-14T08:22:12.642Z,20.13
2023-08-14T08:25:14.249Z,20.16
2023-08-14T08:28:15.955Z,20.08
2023-08-14T08:31:17.644Z,19.98
2023-08-14T08:34:19.289Z,19.84
2023-08-14T08:37:20.940Z,19.73
2023-08-14T08:40:22.621Z,19.68
2023-08-14T08:43:24.338Z,19.70
2023-08-14T08:46:25.988Z,19.77
2023-08-14T08:49:28.824Z,19.85
2023-08-14T08:52:30.924Z,19.82
2023-08-14T08:55:32.533Z,19.83
2023-08-14T08:58:37.533Z,19.88
2023-08-14T09:01:39.416Z,19.82
2023-08-14T09:04:41.299Z,19.84
2023-08-14T09:07:42.953Z,19.83
2023-08-14T09:10:44.587Z,19.89
2023-08-14T09:13:46.230Z,19.88
2023-08-14T09:16:52.611Z,19.86
2023-08-14T09:19:55.076Z,19.84
2023-08-14T09:22:56.710Z,19.84
2023-08-14T09:25:59.835Z,19.83
2023-08-14T09:29:01.552Z,19.78
2023-08-14T09:32:03.368Z,19.74
2023-08-14T09:35:05.327Z,19.64
2023-08-14T09:38:06.992Z,19.79
2023-08-14T09:41:08.599Z,19.83
2023-08-14T09:44:10.268Z,19.88
2023-08-14T09:47:11.951Z,19.70
2023-08-14T09:50:13.611Z,19.74
2023-08-14T09:53:15.188Z,19.69
2023-08-14T09:56:16.892Z,19.77
2023-08-14T09:59:18.564Z,19.82
2023-08-14T10:02:20.540Z,19.87
2023-08-14T10:05:22.331Z,19.84
2023-08-14T10:08:23.923Z,19.83
2023-08-14T10:11:25.580Z,19.87
2023-08-14T10:14:27.252Z,19.93
2023-08-14T10:17:28.853Z,19.86
2023-08-14T10:20:30.498Z,19.92
2023-08-14T10:23:32.100Z,19.96
2023-08-14T10:26:33.876Z,19.95
2023-08-14T10:29:38.458Z,19.87
2023-08-14T10:32:40.128Z,19.95
2023-08-14T10:35:41.788Z,19.91
2023-08-14T10:38:43.474Z,19.95
2023-08-14T10:41:45.102Z,20.04
2023-08-14T10:44:46.859Z,19.97
2023-08-14T10:47:48.516Z,19.91
2023-08-14T10:50:50.171Z,19.89
2023-08-14T10:53:51.855Z,19.94
2023-08-14T10:56:53.530Z,19.82
2023-08-14T10:59:55.216Z,19.91
2023-08-14T11:02:56.890Z,19.97
2023-08-14T11:05:58.597Z,20.04
2023-08-14T11:09:00.289Z,20.02
2023-08-14T11:12:01.960Z,20.03
2023-08-14T11:15:03.616Z,20.03
2023-08-14T11:18:05.333Z,20.04
2023-08-14T11:21:23.695Z,19.99
2023-08-14T11:24:28.651Z,20.06
2023-08-14T11:27:38.026Z,20.06
2023-08-14T11:30:39.693Z,20.10
2023-08-14T11:33:41.373Z,20.00
2023-08-14T11:36:42.968Z,20.07
2023-08-14T11:39:44.688Z,19.96
2023-08-14T11:42:46.411Z,20.00
2023-08-14T11:45:48.070Z,19.98
2023-08-14T11:48:49.717Z,20.05
2023-08-14T11:51:51.318Z,20.00
2023-08-14T11:54:53.076Z,20.05
2023-08-14T11:57:54.658Z,20.05
2023-08-14T12:00:56.272Z,20.04
2023-08-14T12:03:57.967Z,20.01
2023-08-14T12:06:59.657Z,20.02
2023-08-14T12:10:01.241Z,20.05
2023-08-14T12:13:02.861Z,20.04
2023-08-14T12:19:07.990Z,20.07
2023-08-14T12:22:09.697Z,20.11
2023-08-14T12:25:12.583Z,20.06
2023-08-14T12:28:14.293Z,20.02
2023-08-14T12:31:15.947Z,20.08
2023-08-14T12:34:17.622Z,20.14
2023-08-14T12:37:19.557Z,20.14
2023-08-14T12:40:21.455Z,20.12
2023-08-14T12:43:30.727Z,20.10
2023-08-14T12:46:35.019Z,20.11
2023-08-14T12:49:37.928Z,20.11
2023-08-14T12:52:39.909Z,20.13
2023-08-14T12:55:41.530Z,20.12
2023-08-14T12:58:48.242Z,20.16
2023-08-14T13:04:54.804Z,20.23
2023-08-14T13:07:58.618Z,20.21
2023-08-14T13:11:00.232Z,20.27
2023-08-14T13:14:01.919Z,20.20
2023-08-14T13:17:03.644Z,20.19
2023-08-14T13:20:05.264Z,20.18
2023-08-14T13:23:07.053Z,20.16
2023-08-14T13:26:08.770Z,20.12
2023-08-14T13:29:10.361Z,20.20
2023-08-14T13:32:12.023Z,20.19
2023-08-14T13:35:13.628Z,20.24
2023-08-14T13:38:15.243Z,20.19
2023-08-14T13:41:16.811Z,20.18
2023-08-14T13:44:18.403Z,20.18
2023-08-14T13:47:19.996Z,20.16
2023-08-14T13:50:31.664Z,20.18
2023-08-14T13:53:35.154Z,20.17
2023-08-14T13:56:36.787Z,20.15
2023-08-14T13:59:38.377Z,20.16
2023-08-14T14:02:40.008Z,20.18
2023-08-14T14:05:41.618Z,20.18
2023-08-14T14:08:43.233Z,20.15
2023-08-14T14:11:44.843Z,20.18
2023-08-14T14:14:46.434Z,20.20
2023-08-14T14:17:48.017Z,20.25
2023-08-14T14:20:49.663Z,20.15
2023-08-14T14:23:51.248Z,20.25
2023-08-14T14:26:52.854Z,20.23
2023-08-14T14:29:54.443Z,20.13
2023-08-14T14:32:56.045Z,20.27
2023-08-14T14:35:57.771Z,20.26
2023-08-14T14:38:59.479Z,20.22
2023-08-14T14:42:01.122Z,20.23
2023-08-14T14:45:02.770Z,20.28
2023-08-14T14:48:04.503Z,20.28
2023-08-14T14:51:06.193Z,20.20
2023-08-14T14:54:07.764Z,20.28
2023-08-14T14:57:09.352Z,20.26
2023-08-14T15:00:11.030Z,20.25
2023-08-14T15:03:15.910Z,20.23
2023-08-14T15:06:17.625Z,20.23
2023-08-14T15:09:19.262Z,20.24
2023-08-14T15:12:20.865Z,20.26
2023-08-14T15:15:22.460Z,20.26
2023-08-14T15:18:24.113Z,20.34
2023-08-14T15:21:25.716Z,20.28
2023-08-14T15:24:27.345Z,20.26
2023-08-14T15:27:28.902Z,20.25
2023-08-14T15:30:30.517Z,20.26
2023-08-14T15:33:32.138Z,20.29
2023-08-14T15:36:33.909Z,20.21
2023-08-14T15:39:35.543Z,20.24
2023-08-14T15:42:37.166Z,20.23
2023-08-14T15:45:38.780Z,20.26
2023-08-14T15:48:40.416Z,20.26
2023-08-14T15:51:43.397Z,20.15
2023-08-14T15:54:53.313Z,20.23
2023-08-14T15:57:55.495Z,20.28
2023-08-14T16:00:57.145Z,20.35
2023-08-14T16:03:58.768Z,20.31
2023-08-14T16:07:00.377Z,20.23
2023-08-14T16:10:01.999Z,20.26
2023-08-14T16:13:03.584Z,20.35
2023-08-14T16:16:08.003Z,20.33
2023-08-14T16:19:09.576Z,20.29
2023-08-14T16:22:11.204Z,20.25
2023-08-14T16:25:12.976Z,20.28
2023-08-14T16:28:14.572Z,20.18
2023-08-14T16:31:16.179Z,20.26
2023-08-14T16:34:17.851Z,20.30
2023-08-14T16:37:19.704Z,20.31
2023-08-14T16:40:21.445Z,20.31
2023-08-14T16:43:23.071Z,20.28
2023-08-14T16:46:24.692Z,20.27
2023-08-14T16:49:26.370Z,20.27
2023-08-14T16:52:27.997Z,20.26
2023-08-14T16:55:29.679Z,20.28
2023-08-14T16:58:31.236Z,20.27
2023-08-14T17:01:32.840Z,20.26
2023-08-14T17:04:34.484Z,20.28
2023-08-14T17:07:36.110Z,20.27
2023-08-14T17:10:37.786Z,20.29
2023-08-14T17:13:39.477Z,20.27
2023-08-14T17:16:41.199Z,20.27
2023-08-14T17:19:42.832Z,20.26
2023-08-14T17:22:44.436Z,20.26
2023-08-14T17:25:45.997Z,20.26
2023-08-14T17:28:47.590Z,20.26
2023-08-14T17:31:49.252Z,20.27
2023-08-14T17:34:50.963Z,20.29
2023-08-14T17:37:52.539Z,20.27
2023-08-14T17:40:54.151Z,20.26
2023-08-14T17:43:55.768Z,20.27
2023-08-14T17:46:57.404Z,20.27
2023-08-14T17:49:59.018Z,20.28
2023-08-14T17:53:00.613Z,20.27
2023-08-14T17:56:02.223Z,20.28
2023-08-14T17:59:03.875Z,20.29
2023-08-14T18:02:05.550Z,20.30
2023-08-14T18:05:07.185Z,20.29
2023-08-14T18:08:08.795Z,20.30
2023-08-14T18:11:10.453Z,20.33
2023-08-14T18:14:12.072Z,20.31
2023-08-14T18:17:13.674Z,20.29
2023-08-14T18:20:16.766Z,20.30
2023-08-14T18:23:24.860Z,20.29
2023-08-14T18:26:26.572Z,20.30
2023-08-14T18:29:28.141Z,20.30
2023-08-14T18:32:29.756Z,20.32
2023-08-14T18:35:31.490Z,20.32
2023-08-14T18:38:33.076Z,20.31
2023-08-14T18:41:34.692Z,20.32
2023-08-14T18:44:36.320Z,20.33
2023-08-14T18:47:37.956Z,20.33
2023-08-14T18:50:40.968Z,20.33
2023-08-14T18:53:43.019Z,20.33
2023-08-14T18:56:44.581Z,20.35
2023-08-14T18:59:46.195Z,20.37
2023-08-14T19:02:47.898Z,20.34
2023-08-14T19:05:49.526Z,20.34
2023-08-14T19:08:51.098Z,20.40
2023-08-14T19:11:52.697Z,20.43
2023-08-14T19:14:54.315Z,20.40
2023-08-14T19:17:56.010Z,20.39
2023-08-14T19:20:57.693Z,20.38
2023-08-14T19:23:59.287Z,20.37
2023-08-14T19:27:00.842Z,20.38
2023-08-14T19:30:02.416Z,20.38
2023-08-14T19:33:04.018Z,20.39
2023-08-14T19:36:05.623Z,20.40
2023-08-14T19:39:07.194Z,20.41
2023-08-14T19:42:08.817Z,20.41
2023-08-14T19:45:10.414Z,20.42
2023-08-14T19:48:12.055Z,20.37
2023-08-14T19:51:13.656Z,20.40
2023-08-14T19:54:15.258Z,20.42
2023-08-14T19:57:16.900Z,20.42
2023-08-14T20:00:18.598Z,20.42
2023-08-14T20:03:20.301Z,20.39
2023-08-14T20:06:21.983Z,20.40
2023-08-14T20:09:23.569Z,20.41
2023-08-14T20:12:25.131Z,20.41
2023-08-14T20:15:26.725Z,20.42
2023-08-14T20:18:28.367Z,20.42
2023-08-14T20:21:29.956Z,20.42
2023-08-14T20:24:31.557Z,20.41
2023-08-14T20:27:33.201Z,20.40
2023-08-14T20:30:34.818Z,20.40
2023-08-14T20:33:36.455Z,20.41
2023-08-14T20:36:38.048Z,20.40
2023-08-14T20:39:39.709Z,20.40
2023-08-14T20:42:41.418Z,20.39
2023-08-14T20:45:43.026Z,20.38
2023-08-14T20:48:44.590Z,20.36
2023-08-14T20:51:46.230Z,20.37
2023-08-14T20:54:47.858Z,20.36
2023-08-14T20:57:49.483Z,20.36
2023-08-14T21:00:51.073Z,20.36
2023-08-14T21:03:52.792Z,20.36
2023-08-14T21:06:54.537Z,20.37
2023-08-14T21:09:56.159Z,20.35
2023-08-14T21:12:57.717Z,20.36
2023-08-14T21:15:59.393Z,20.36
2023-08-14T21:19:00.967Z,20.35
2023-08-14T21:22:02.593Z,20.33
2023-08-14T21:25:04.174Z,20.34
2023-08-14T21:28:05.725Z,20.34
2023-08-14T21:31:07.372Z,20.32
2023-08-14T21:34:08.994Z,20.32
2023-08-14T21:37:10.613Z,20.31
2023-08-14T21:40:12.228Z,20.31
2023-08-14T21:43:13.811Z,20.29
2023-08-14T21:46:15.410Z,20.30
2023-08-14T21:49:17.097Z,20.28
2023-08-14T21:52:18.753Z,20.26
2023-08-14T21:55:20.363Z,20.26
2023-08-14T21:58:22.082Z,20.26
2023-08-14T22:01:23.691Z,20.26
2023-08-14T22:04:25.388Z,20.24
2023-08-14T22:07:27.050Z,20.23
2023-08-14T22:10:28.689Z,20.23
2023-08-14T22:13:30.286Z,20.23
2023-08-14T22:16:31.932Z,20.21
2023-08-14T22:19:33.536Z,20.22
2023-08-14T22:22:35.158Z,20.20
2023-08-14T22:25:36.756Z,20.20
2023-08-14T22:28:38.333Z,20.19
2023-08-14T22:31:39.983Z,20.18
2023-08-14T22:34:41.585Z,20.17
2023-08-14T22:37:43.190Z,20.16
2023-08-14T22:40:44.787Z,20.15
2023-08-14T22:43:46.389Z,20.15
2023-08-14T22:46:48.081Z,20.13
2023-08-14T22:49:49.766Z,20.12
2023-08-14T22:52:51.329Z,20.12
2023-08-14T22:55:52.909Z,20.11
2023-08-14T22:58:54.456Z,20.09
2023-08-14T23:01:56.040Z,20.07
2023-08-14T23:04:57.591Z,20.08
2023-08-14T23:07:59.229Z,20.08
2023-08-14T23:11:00.794Z,20.08
2023-08-14T23:14:02.443Z,20.08
2023-08-14T23:17:04.092Z,20.05
2023-08-14T23:20:05.654Z,20.02
2023-08-14T23:23:07.294Z,20.02
2023-08-14T23:26:08.885Z,20.02
2023-08-14T23:29:10.473Z,20.02
2023-08-14T23:32:12.021Z,20.01
2023-08-14T23:35:13.618Z,19.98
2023-08-14T23:38:15.242Z,20.00
2023-08-14T23:41:16.842Z,20.00
2023-08-14T23:44:18.406Z,20.00
2023-08-14T23:47:20.093Z,20.01
2023-08-14T23:50:21.907Z,20.01
2023-08-14T23:53:23.755Z,19.99
2023-08-14T23:56:25.373Z,19.98
2023-08-14T23:59:26.942Z,19.97
